Time;durP1;ratioP1;P1;durP2;ratioP2;P2;SDS_P1;SDS_P2;PMS_P1;PMS_P2;Temp;Humidity;BMP_temperature;BMP_pressure;BME280_temperature;BME280_humidity;BME280_pressure;Samples;Min_cycle;Max_cycle;Signal;HPM_P1;HPM_P2
2023/04/28 00:01:22;;;;;;;2.07;1.77;;;;;;;6.92;58.24;63656.13;5073382;28;20213;-55
2023/04/28 00:03:48;;;;;;;2.93;1.70;;;;;;;6.89;58.47;63650.91;5073664;28;20367;-57
2023/04/28 00:06:13;;;;;;;2.00;1.60;;;;;;;6.91;58.03;63657.56;5073667;28;20335;-56
2023/04/28 00:08:40;;;;;;;8.07;1.83;;;;;;;6.81;59.20;63644.69;5073381;28;20698;-54
2023/04/28 00:11:11;;;;;;;7.97;2.20;;;;;;;6.68;58.94;63631.06;5073465;28;20736;-57
2023/04/28 00:13:37;;;;;;;1.87;1.70;;;;;;;6.74;58.63;63637.06;5073218;28;20205;-56
2023/04/28 00:16:03;;;;;;;4.70;1.73;;;;;;;6.61;58.75;63625.38;5073189;28;20212;-56
2023/04/28 00:18:28;;;;;;;3.83;1.90;;;;;;;6.72;58.67;63634.88;5073545;28;20219;-56
2023/04/28 00:20:54;;;;;;;5.17;2.00;;;;;;;6.59;59.54;63621.25;5073056;28;20691;-55
2023/04/28 00:23:20;;;;;;;1.83;1.37;;;;;;;6.61;59.45;63620.94;5073334;28;20240;-55
2023/04/28 00:25:53;;;;;;;3.03;1.73;;;;;;;6.59;59.36;63621.25;5055082;28;20580;-55
2023/04/28 00:28:18;;;;;;;4.57;1.70;;;;;;;6.52;60.15;63616.13;5073543;28;20732;-55
2023/04/28 00:30:44;;;;;;;2.80;1.80;;;;;;;6.40;60.43;63600.53;5055175;28;20234;-55
2023/04/28 00:33:09;;;;;;;4.10;1.50;;;;;;;6.29;59.80;63588.00;5054888;28;20204;-55
2023/04/28 00:35:34;;;;;;;4.23;1.93;;;;;;;6.35;60.28;63595.09;5073007;28;20673;-56
2023/04/28 00:38:00;;;;;;;2.43;2.00;;;;;;;6.35;60.08;63597.03;5072943;28;20220;-54
2023/04/28 00:40:37;;;;;;;3.23;2.00;;;;;;;6.41;60.44;63599.13;5071536;28;20694;-56
2023/04/28 00:43:03;;;;;;;8.17;1.80;;;;;;;6.45;60.25;63603.50;5072981;28;20334;-55
2023/04/28 00:45:29;;;;;;;3.63;1.50;;;;;;;6.29;60.85;63588.56;5054790;28;20675;-56
2023/04/28 00:47:55;;;;;;;4.03;1.90;;;;;;;6.32;60.64;63594.31;5072880;28;20184;-59
2023/04/28 00:50:23;;;;;;;2.63;1.80;;;;;;;6.31;60.80;63590.72;5072922;28;20200;-57
2023/04/28 00:52:50;;;;;;;3.80;1.97;;;;;;;6.15;61.07;63573.28;5072805;28;20247;-57
2023/04/28 00:55:15;;;;;;;6.03;1.70;;;;;;;6.23;61.21;63583.97;5072478;28;20596;-59
2023/04/28 00:57:42;;;;;;;3.27;1.67;;;;;;;6.16;61.42;63573.84;5072513;28;20181;-59
2023/04/28 01:00:08;;;;;;;3.73;1.60;;;;;;;6.20;61.00;63578.72;5072551;28;20193;-57
2023/04/28 01:02:36;;;;;;;5.30;2.07;;;;;;;5.94;61.83;63552.91;5072805;28;20177;-60
2023/04/28 01:05:02;;;;;;;5.67;2.13;;;;;;;6.05;62.27;63564.91;5072676;28;20641;-59
2023/04/28 01:07:28;;;;;;;3.80;1.87;;;;;;;6.04;62.49;63563.28;5072605;28;20234;-60
2023/04/28 01:09:54;;;;;;;3.77;2.07;;;;;;;5.91;62.16;63550.19;5072622;28;20217;-56
2023/04/28 01:12:20;;;;;;;3.27;1.80;;;;;;;5.97;62.48;63553.13;5054571;28;20249;-57
2023/04/28 01:14:46;;;;;;;5.00;2.03;;;;;;;5.90;62.37;63546.06;5072687;28;20287;-55
2023/04/28 01:17:12;;;;;;;3.80;1.93;;;;;;;5.83;62.97;63539.00;5072450;28;20193;-57
2023/04/28 01:19:38;;;;;;;3.27;2.03;;;;;;;5.88;62.57;63546.38;5072490;28;20200;-58
2023/04/28 01:22:03;;;;;;;4.90;1.80;;;;;;;5.81;62.49;63536.25;5072113;28;20248;-55
2023/04/28 01:24:29;;;;;;;5.27;1.77;;;;;;;5.79;63.14;63534.06;5072641;28;20216;-55
2023/04/28 01:26:54;;;;;;;5.10;2.00;;;;;;;5.82;63.38;63539.81;5072441;28;20189;-54
2023/04/28 01:29:20;;;;;;;2.80;1.83;;;;;;;5.83;63.20;63539.00;5072460;28;20579;-55
2023/04/28 01:31:45;;;;;;;3.30;1.80;;;;;;;5.78;62.75;63536.00;5072173;28;20216;-55
2023/04/28 01:34:11;;;;;;;3.40;2.50;;;;;;;5.60;63.23;63513.91;5072323;28;20205;-55
2023/04/28 01:36:36;;;;;;;3.57;1.90;;;;;;;5.59;63.24;63512.28;5071860;28;20199;-55
2023/04/28 01:39:02;;;;;;;3.30;1.67;;;;;;;5.66;63.26;63519.91;5071653;28;20215;-55
2023/04/28 01:41:28;;;;;;;5.77;1.80;;;;;;;5.67;63.27;63524.03;5071763;28;20208;-56
2023/04/28 01:43:53;;;;;;;5.83;2.07;;;;;;;5.68;63.07;63525.13;5071707;28;20282;-54
2023/04/28 01:46:19;;;;;;;3.87;1.87;;;;;;;5.66;63.25;63522.94;5071938;28;20181;-56
2023/04/28 01:48:44;;;;;;;4.07;1.57;;;;;;;5.68;63.13;63522.63;5072261;28;20201;-56
2023/04/28 01:51:10;;;;;;;5.00;2.03;;;;;;;5.67;62.42;63521.00;5071982;28;20247;-55
2023/04/28 01:53:35;;;;;;;3.10;1.70;;;;;;;5.64;62.61;63518.25;5072140;28;20222;-55
2023/04/28 01:56:01;;;;;;;3.23;1.73;;;;;;;5.59;62.92;63514.78;5071928;28;20189;-55
2023/04/28 01:58:26;;;;;;;5.90;2.03;;;;;;;5.64;62.01;63520.22;5070375;28;20299;-55
2023/04/28 02:00:52;;;;;;;4.03;1.80;;;;;;;5.61;61.72;63516.97;5071861;28;20216;-55
2023/04/28 02:03:17;;;;;;;3.33;2.10;;;;;;;5.59;62.68;63512.28;5071727;28;20264;-55
2023/04/28 02:05:43;;;;;;;4.50;2.10;;;;;;;5.53;62.88;63506.28;5071747;28;20762;-55
2023/04/28 02:08:08;;;;;;;2.53;1.77;;;;;;;5.51;62.42;63504.13;5070773;28;20223;-55
2023/04/28 02:10:33;;;;;;;3.57;1.83;;;;;;;5.46;62.70;63500.63;5053726;28;20193;-57
2023/04/28 02:12:59;;;;;;;2.97;2.20;;;;;;;5.54;62.21;63509.31;5071482;28;20574;-57
2023/04/28 02:15:24;;;;;;;2.40;2.00;;;;;;;5.48;62.25;63502.78;5071827;28;20200;-56
2023/04/28 02:17:50;;;;;;;3.87;2.23;;;;;;;5.42;62.98;63496.81;5071642;28;20192;-54
2023/04/28 02:20:15;;;;;;;2.87;2.10;;;;;;;5.33;62.76;63487.03;5071303;28;20199;-56
2023/04/28 02:22:41;;;;;;;4.37;2.60;;;;;;;5.41;63.04;63495.19;5071301;28;20258;-58
2023/04/28 02:25:07;;;;;;;4.23;2.27;;;;;;;5.34;63.42;63487.56;5071456;28;20192;-59
2023/04/28 02:27:35;;;;;;;2.30;2.10;;;;;;;5.33;63.71;63484.53;5071140;28;20211;-56
2023/04/28 02:30:02;;;;;;;4.40;1.77;;;;;;;5.34;63.66;63488.09;5071446;28;21170;-62
2023/04/28 02:32:27;;;;;;;2.47;1.83;;;;;;;5.41;62.97;63495.72;5071294;28;20296;-57
2023/04/28 02:34:54;;;;;;;2.13;1.93;;;;;;;5.41;62.94;63493.22;5071135;28;20260;-55
2023/04/28 02:37:19;;;;;;;3.20;2.00;;;;;;;5.42;62.87;63496.25;5071144;28;20192;-55
2023/04/28 02:39:45;;;;;;;3.17;1.80;;;;;;;5.45;63.50;63497.03;5071414;28;20280;-56
2023/04/28 02:42:11;;;;;;;4.73;2.67;;;;;;;5.52;62.97;63507.16;5071425;28;20217;-56
2023/04/28 02:44:36;;;;;;;5.23;1.93;;;;;;;5.57;62.77;63515.09;5071029;28;20208;-56
2023/04/28 02:47:02;;;;;;;3.47;2.13;;;;;;;5.40;63.63;63491.59;5071202;28;20272;-58
2023/04/28 02:49:27;;;;;;;3.47;1.97;;;;;;;5.66;62.80;63520.44;5070982;28;20670;-55
2023/04/28 02:51:52;;;;;;;3.13;2.27;;;;;;;5.59;63.74;63517.81;5070916;28;20196;-55
2023/04/28 02:54:26;;;;;;;4.63;2.20;;;;;;;5.63;63.24;63519.13;5071252;28;20216;-55
2023/04/28 02:56:53;;;;;;;3.13;1.60;;;;;;;5.61;63.23;63515.00;5070842;28;20172;-55
2023/04/28 02:59:18;;;;;;;5.63;1.87;;;;;;;5.68;63.10;63522.06;5071140;28;20265;-55
2023/04/28 03:01:44;;;;;;;5.67;1.93;;;;;;;5.61;62.99;63517.50;5070934;28;20686;-54
2023/04/28 03:04:09;;;;;;;3.27;1.93;;;;;;;5.57;62.88;63513.16;5070832;28;20265;-54
2023/04/28 03:06:34;;;;;;;6.30;2.23;;;;;;;5.57;63.27;63510.09;5070715;28;20572;-54
2023/04/28 03:09:00;;;;;;;2.97;1.83;;;;;;;5.42;63.31;63496.25;5070723;28;20208;-55
2023/04/28 03:11:25;;;;;;;5.43;2.10;;;;;;;5.39;63.98;63491.06;5036034;28;20184;-55
2023/04/28 03:13:51;;;;;;;3.90;1.67;;;;;;;5.56;62.96;63511.50;5070414;28;20246;-55
2023/04/28 03:16:17;;;;;;;2.57;2.20;;;;;;;5.55;63.00;63510.97;5070531;28;20329;-56
2023/04/28 03:18:42;;;;;;;2.60;1.97;;;;;;;5.44;63.93;63498.44;5068382;22;20239;-56
2023/04/28 03:21:08;;;;;;;1.87;1.73;;;;;;;5.44;63.81;63495.94;5050520;28;20687;-54
2023/04/28 03:23:33;;;;;;;2.00;1.80;;;;;;;5.56;63.95;63509.56;5050955;28;20224;-57
2023/04/28 03:25:59;;;;;;;2.87;1.50;;;;;;;5.55;63.04;63510.97;5032775;28;20595;-55
2023/04/28 03:28:25;;;;;;;5.73;2.57;;;;;;;5.54;64.05;63509.31;5050849;28;20232;-59
2023/04/28 03:30:51;;;;;;;2.73;2.00;;;;;;;5.47;63.29;63501.72;5050633;28;20215;-55
2023/04/28 03:33:16;;;;;;;7.67;2.03;;;;;;;5.47;63.36;63501.72;5050850;28;20296;-57
2023/04/28 03:35:42;;;;;;;3.60;1.90;;;;;;;5.50;62.85;63504.97;5050356;28;20189;-57
2023/04/28 03:38:07;;;;;;;2.03;1.67;;;;;;;5.43;63.54;63497.91;5050471;28;20282;-58
2023/04/28 03:40:33;;;;;;;4.37;1.63;;;;;;;5.46;62.70;63503.13;5050296;28;20698;-58
2023/04/28 03:42:58;;;;;;;2.60;1.70;;;;;;;5.41;62.57;63495.19;5050262;28;20232;-57
2023/04/28 03:45:23;;;;;;;8.73;4.20;;;;;;;5.35;63.04;63489.19;5050169;28;20216;-61
2023/04/28 03:47:49;;;;;;;8.00;2.93;;;;;;;5.47;63.13;63499.75;5032319;28;20209;-59
2023/04/28 03:50:14;;;;;;;4.20;1.67;;;;;;;5.43;62.90;63495.41;5050291;28;20189;-58
2023/04/28 03:52:40;;;;;;;5.00;2.50;;;;;;;5.45;62.08;63499.53;5050275;28;20610;-58
2023/04/28 03:55:06;;;;;;;4.13;2.23;;;;;;;5.45;62.64;63500.09;5050097;28;20227;-59
2023/04/28 03:57:32;;;;;;;3.53;1.87;;;;;;;5.53;61.69;63508.78;5050241;28;20184;-59
2023/04/28 03:59:57;;;;;;;3.47;1.90;;;;;;;5.47;61.88;63504.22;5050072;28;20221;-63
2023/04/28 04:02:22;;;;;;;3.17;1.90;;;;;;;5.37;62.04;63488.31;5049994;28;20223;-58
2023/04/28 04:04:48;;;;;;;4.40;1.83;;;;;;;5.40;62.76;63494.09;5049758;28;20612;-58
2023/04/28 04:07:13;;;;;;;4.23;2.17;;;;;;;5.50;61.68;63500.53;5050151;28;20188;-58
2023/04/28 04:09:39;;;;;;;2.83;2.00;;;;;;;5.45;61.32;63500.09;5050056;28;20216;-57
2023/04/28 04:12:05;;;;;;;3.60;1.90;;;;;;;5.64;61.43;63520.22;5050175;28;20239;-59
2023/04/28 04:14:37;;;;;;;2.40;2.13;;;;;;;5.55;61.09;63507.94;5049882;28;20227;-59
2023/04/28 04:17:03;;;;;;;3.97;1.60;;;;;;;5.46;60.67;63503.13;5049748;28;20225;-58
2023/04/28 04:19:28;;;;;;;4.63;2.30;;;;;;;5.65;61.59;63521.31;5049672;28;20197;-59
2023/04/28 04:21:53;;;;;;;8.60;2.30;;;;;;;5.55;61.47;63508.47;5049723;28;20264;-59
2023/04/28 04:24:19;;;;;;;5.27;2.20;;;;;;;5.49;60.72;63504.44;5049650;28;20678;-58
2023/04/28 04:26:44;;;;;;;4.23;2.23;;;;;;;5.52;61.04;63504.66;5049479;28;20188;-56
2023/04/28 04:29:10;;;;;;;6.17;2.57;;;;;;;5.49;60.94;63501.94;5049465;28;20769;-58
2023/04/28 04:31:35;;;;;;;4.23;2.20;;;;;;;5.50;61.14;63504.97;5051911;28;20173;-56
2023/04/28 04:34:06;;;;;;;2.50;1.73;;;;;;;5.45;60.82;63499.53;5053004;28;20201;-59
2023/04/28 04:36:32;;;;;;;2.90;1.70;;;;;;;5.53;60.82;63508.25;5035136;28;20271;-56
2023/04/28 04:38:58;;;;;;;3.47;2.67;;;;;;;5.59;60.82;63512.84;5052881;28;20266;-55
2023/04/28 04:41:25;;;;;;;3.53;2.07;;;;;;;5.64;60.37;63518.25;5052660;28;20208;-55
2023/04/28 04:43:50;;;;;;;2.83;2.00;;;;;;;5.53;60.74;63508.78;5052758;28;20239;-54
2023/04/28 04:46:15;;;;;;;4.13;2.47;;;;;;;5.64;60.88;63520.75;5052711;28;20651;-55
2023/04/28 04:48:41;;;;;;;3.30;2.10;;;;;;;5.76;59.89;63530.78;5052647;28;20224;-58
2023/04/28 04:51:06;;;;;;;2.97;1.90;;;;;;;5.79;59.78;63534.06;5052608;28;20178;-58
2023/04/28 04:53:32;;;;;;;3.03;2.00;;;;;;;5.83;59.53;63541.50;5053061;28;20216;-58
2023/04/28 04:55:57;;;;;;;4.60;2.13;;;;;;;5.98;59.30;63554.25;5052972;28;20189;-56
2023/04/28 04:58:23;;;;;;;7.00;3.27;;;;;;;6.04;59.20;63561.31;5052944;28;20214;-56
2023/04/28 05:00:49;;;;;;;3.77;2.60;;;;;;;5.86;59.25;63541.69;5052343;28;20262;-56
2023/04/28 05:03:15;;;;;;;2.67;2.00;;;;;;;5.68;59.50;63524.56;5052477;28;20235;-56
2023/04/28 05:05:40;;;;;;;3.93;2.47;;;;;;;5.74;59.67;63526.09;5052413;28;20686;-56
2023/04/28 05:08:06;;;;;;;5.77;2.57;;;;;;;5.85;59.87;63543.13;5052614;28;20220;-55
2023/04/28 05:10:31;;;;;;;9.67;3.13;;;;;;;5.98;59.04;63556.75;5052049;28;20189;-55
2023/04/28 05:12:57;;;;;;;5.83;2.57;;;;;;;5.99;59.77;63558.38;5052253;28;20278;-55
2023/04/28 05:15:22;;;;;;;6.60;3.20;;;;;;;6.00;59.05;63559.44;5052303;28;20182;-55
2023/04/28 05:17:48;;;;;;;5.97;2.50;;;;;;;6.14;60.10;63572.19;5052429;28;20565;-55
2023/04/28 05:20:13;;;;;;;4.67;2.80;;;;;;;6.10;59.46;63569.81;5052095;28;20189;-61
2023/04/28 05:22:39;;;;;;;4.53;2.60;;;;;;;6.29;59.02;63590.50;5052449;28;20557;-56
2023/04/28 05:25:06;;;;;;;7.27;2.83;;;;;;;6.33;57.81;63592.91;5052072;28;20604;-56
2023/04/28 05:27:31;;;;;;;5.67;1.97;;;;;;;6.35;57.52;63597.03;5052092;28;20561;-58
2023/04/28 05:29:56;;;;;;;5.37;2.20;;;;;;;6.44;58.20;63607.41;5052105;28;20266;-56
2023/04/28 05:32:22;;;;;;;7.70;2.67;;;;;;;6.39;57.68;63601.41;5052160;28;20192;-56
2023/04/28 05:34:47;;;;;;;6.30;2.43;;;;;;;6.33;58.14;63595.41;5051837;28;20743;-55
2023/04/28 05:37:13;;;;;;;4.70;2.47;;;;;;;6.47;58.17;63610.66;5051985;28;20197;-56
2023/04/28 05:39:38;;;;;;;4.03;2.20;;;;;;;6.54;57.53;63615.81;5051797;28;20562;-58
2023/04/28 05:42:04;;;;;;;2.43;2.10;;;;;;;7.08;59.70;63676.09;5051254;28;20241;-59
2023/04/28 05:44:30;;;;;;;5.50;2.50;;;;;;;6.77;58.77;63645.88;5051291;28;20209;-55
2023/04/28 05:46:56;;;;;;;4.67;2.03;;;;;;;6.84;58.61;63650.47;5051661;28;20193;-56
2023/04/28 05:49:21;;;;;;;5.97;2.37;;;;;;;6.67;58.08;63626.91;5051442;28;20231;-54
2023/04/28 05:51:47;;;;;;;5.03;2.47;;;;;;;6.72;58.68;63640.44;5051690;28;20186;-55
2023/04/28 05:54:13;;;;;;;3.80;1.73;;;;;;;6.76;58.26;63639.78;5051375;28;20209;-55
2023/04/28 05:56:38;;;;;;;8.20;2.70;;;;;;;6.68;58.18;63633.56;5051335;28;20188;-54
2023/04/28 05:59:04;;;;;;;3.20;2.37;;;;;;;6.84;57.17;63649.91;5051509;28;20577;-56
2023/04/28 06:01:30;;;;;;;5.33;2.40;;;;;;;6.89;58.77;63653.41;5051182;28;20762;-55
2023/04/28 06:03:57;;;;;;;9.30;3.03;;;;;;;7.04;57.93;63669.22;5051236;28;20220;-55
2023/04/28 06:06:24;;;;;;;4.63;2.73;;;;;;;6.93;57.75;63657.25;5051156;28;20181;-55
2023/04/28 06:08:49;;;;;;;6.67;2.90;;;;;;;6.98;56.55;63665.19;5051144;28;20214;-55
2023/04/28 06:11:15;;;;;;;5.63;2.20;;;;;;;7.00;56.42;63664.84;5051336;28;20182;-54
2023/04/28 06:13:40;;;;;;;3.37;2.40;;;;;;;7.06;56.66;63671.94;5051175;28;20766;-57
2023/04/28 06:16:06;;;;;;;3.50;2.10;;;;;;;6.98;56.34;63662.69;5051078;28;20196;-55
2023/04/28 06:18:32;;;;;;;6.13;2.40;;;;;;;6.88;55.66;63654.81;5051130;28;20220;-55
2023/04/28 06:20:57;;;;;;;6.67;2.83;;;;;;;7.00;55.70;63667.38;5051286;28;20201;-56
2023/04/28 06:23:23;;;;;;;5.47;2.23;;;;;;;7.04;55.97;63669.22;5051339;28;20528;-55
2023/04/28 06:25:48;;;;;;;7.77;2.73;;;;;;;7.22;55.45;63688.84;5051073;28;20260;-57
2023/04/28 06:28:14;;;;;;;6.80;2.60;;;;;;;7.49;55.84;63715.81;5051215;28;20210;-55
2023/04/28 06:30:40;;;;;;;4.77;2.73;;;;;;;7.78;55.31;63749.41;5050790;28;20226;-57
2023/04/28 06:33:05;;;;;;;4.23;2.40;;;;;;;7.87;54.59;63759.22;5051000;28;20229;-56
2023/04/28 06:35:34;;;;;;;8.47;2.33;;;;;;;7.87;55.48;63757.28;5032954;28;20228;-56
2023/04/28 06:38:01;;;;;;;4.87;2.20;;;;;;;7.71;53.64;63739.81;5050884;28;20701;-58
2023/04/28 06:40:26;;;;;;;5.27;2.43;;;;;;;7.86;53.90;63758.69;5050783;28;20343;-56
2023/04/28 06:42:52;;;;;;;8.03;2.70;;;;;;;7.97;52.87;63775.72;5050728;28;20189;-55
2023/04/28 06:45:18;;;;;;;7.37;3.13;;;;;;;8.12;52.85;63789.03;5050864;28;20182;-57
2023/04/28 06:47:43;;;;;;;8.43;2.80;;;;;;;8.07;51.99;63781.06;5050932;28;20198;-55
2023/04/28 06:50:09;;;;;;;5.33;2.47;;;;;;;8.03;52.25;63776.69;5050661;28;20196;-57
2023/04/28 06:52:35;;;;;;;6.53;2.63;;;;;;;7.89;53.05;63761.41;5050907;28;20201;-55
2023/04/28 06:55:00;;;;;;;9.37;4.83;;;;;;;8.31;53.57;63807.84;5050198;28;20185;-56
2023/04/28 06:57:25;;;;;;;7.43;3.20;;;;;;;8.65;51.75;63844.41;5050653;28;20193;-56
2023/04/28 06:59:51;;;;;;;5.03;2.90;;;;;;;8.85;51.25;63868.22;5050441;28;20202;-56
2023/04/28 07:02:16;;;;;;;2.67;2.30;;;;;;;8.65;51.90;63846.38;5050366;28;20228;-56
2023/04/28 07:04:41;;;;;;;8.63;2.97;;;;;;;8.48;50.68;63826.41;5050360;28;20224;-55
2023/04/28 07:07:07;;;;;;;5.97;2.40;;;;;;;8.54;51.18;63829.34;5050605;28;20189;-58
2023/04/28 07:09:36;;;;;;;4.73;2.30;;;;;;;8.60;49.93;63838.41;5050339;28;20239;-56
2023/04/28 07:12:03;;;;;;;5.20;2.63;;;;;;;8.79;50.89;63861.69;5032501;28;20659;-55
2023/04/28 07:14:28;;;;;;;5.20;2.87;;;;;;;9.08;50.35;63890.88;5050356;28;20241;-56
2023/04/28 07:16:54;;;;;;;2.90;2.20;;;;;;;9.29;48.98;63911.84;5049980;28;20273;-56
2023/04/28 07:19:19;;;;;;;3.33;2.30;;;;;;;9.11;47.96;63896.66;5049906;28;20623;-56
2023/04/28 07:21:45;;;;;;;3.07;2.03;;;;;;;8.95;47.93;63879.16;5050060;28;20263;-55
2023/04/28 07:24:10;;;;;;;6.37;2.37;;;;;;;9.20;48.73;63903.97;5050034;28;20205;-55
2023/04/28 07:26:36;;;;;;;7.33;2.67;;;;;;;9.11;48.44;63891.63;5050135;28;20212;-56
2023/04/28 07:29:01;;;;;;;8.20;2.83;;;;;;;9.23;48.68;63907.81;5050003;28;20793;-56
2023/04/28 07:31:27;;;;;;;5.33;2.40;;;;;;;9.41;49.02;63926.41;5049998;28;20270;-57
2023/04/28 07:33:53;;;;;;;5.77;2.73;;;;;;;9.32;47.93;63917.66;5050019;28;20202;-57
2023/04/28 07:36:19;;;;;;;3.17;2.00;;;;;;;9.33;46.68;63915.69;5050084;28;20263;-57
2023/04/28 07:38:45;;;;;;;4.93;2.47;;;;;;;9.68;47.31;63955.91;5050308;28;20209;-56
2023/04/28 07:41:11;;;;;;;4.73;2.80;;;;;;;9.52;47.07;63940.94;5049988;28;20322;-55
2023/04/28 07:43:36;;;;;;;4.13;2.40;;;;;;;9.62;47.10;63949.91;5032016;28;20722;-57
2023/04/28 07:46:02;;;;;;;5.87;2.43;;;;;;;10.20;46.45;64012.81;5032246;28;20189;-56
2023/04/28 07:48:27;;;;;;;2.27;2.07;;;;;;;10.62;45.87;64060.75;5050129;28;20296;-56
2023/04/28 07:50:53;;;;;;;7.43;2.93;;;;;;;10.83;46.83;64081.22;5050249;28;20643;-56
2023/04/28 07:53:18;;;;;;;4.23;2.27;;;;;;;10.65;45.01;64064.56;5050250;28;20237;-56
2023/04/28 07:55:45;;;;;;;6.60;2.63;;;;;;;10.91;44.67;64089.97;5049775;28;20280;-56
2023/04/28 07:58:11;;;;;;;8.10;2.53;;;;;;;10.83;44.57;64078.69;5049596;28;20583;-56
2023/04/28 08:00:37;;;;;;;4.67;2.67;;;;;;;10.29;44.47;64022.09;5049780;28;20672;-56
2023/04/28 08:03:02;;;;;;;7.57;2.30;;;;;;;10.48;44.37;64040.41;5050006;28;20213;-55
2023/04/28 08:05:28;;;;;;;4.67;2.07;;;;;;;10.96;45.03;64092.94;5050156;28;20200;-56
2023/04/28 08:07:54;;;;;;;3.33;2.00;;;;;;;11.49;43.76;64150.97;5053367;28;20616;-56
2023/04/28 08:10:20;;;;;;;4.07;2.03;;;;;;;11.34;42.54;64137.06;5053258;28;20270;-61
2023/04/28 08:12:45;;;;;;;4.27;2.27;;;;;;;11.42;41.96;64142.75;5053157;28;20201;-54
2023/04/28 08:15:11;;;;;;;6.23;2.30;;;;;;;11.33;42.41;64135.44;5053202;28;20219;-57
2023/04/28 08:17:37;;;;;;;2.93;2.13;;;;;;;10.86;43.22;64087.03;5053323;28;20208;-55
2023/04/28 08:20:05;;;;;;;4.40;2.30;;;;;;;11.01;42.69;64100.91;5053044;28;20574;-56
2023/04/28 08:22:31;;;;;;;5.23;2.10;;;;;;;11.16;42.43;64117.34;5053146;28;20218;-55
2023/04/28 08:24:56;;;;;;;4.23;2.30;;;;;;;11.73;42.60;64179.84;5052830;28;20205;-55
2023/04/28 08:27:22;;;;;;;4.63;2.37;;;;;;;12.15;43.76;64222.22;5035076;28;20194;-57
2023/04/28 08:29:48;;;;;;;8.20;2.10;;;;;;;12.05;42.10;64214.34;5053114;28;20221;-55
2023/04/28 08:32:13;;;;;;;11.50;2.60;;;;;;;12.16;40.73;64225.88;5052450;28;20260;-56
2023/04/28 08:34:38;;;;;;;5.00;2.50;;;;;;;12.27;41.45;64235.38;5034780;28;20205;-56
2023/04/28 08:37:05;;;;;;;5.17;2.07;;;;;;;12.29;41.83;64238.13;5053070;28;20208;-58
2023/04/28 08:39:33;;;;;;;3.83;2.57;;;;;;;12.38;41.57;64247.47;5052962;28;20206;-56
2023/04/28 08:41:58;;;;;;;5.70;2.00;;;;;;;12.44;41.82;64257.09;5053018;28;20225;-56
2023/04/28 08:44:23;;;;;;;4.07;1.83;;;;;;;12.75;40.58;64288.03;5052754;28;20209;-56
2023/04/28 08:46:55;;;;;;;3.87;1.93;;;;;;;13.23;40.53;64338.19;5052773;28;20720;-56
2023/04/28 08:49:27;;;;;;;3.63;2.23;;;;;;;13.05;40.84;64323.47;5052715;28;20202;-56
2023/04/28 08:51:58;;;;;;;2.60;1.93;;;;;;;12.70;39.07;64282.56;5052703;28;20342;-56
2023/04/28 08:54:29;;;;;;;2.70;2.00;;;;;;;12.81;40.35;64299.66;5052389;28;20720;-56
2023/04/28 08:56:56;;;;;;;4.40;2.20;;;;;;;12.83;39.69;64299.31;5052566;28;20193;-58
2023/04/28 08:59:22;;;;;;;4.40;2.20;;;;;;;13.22;39.25;64342.16;5034542;28;20212;-56
2023/04/28 09:01:49;;;;;;;6.93;2.45;;;;;;;13.68;39.51;64389.00;5052472;28;20213;-56
2023/04/28 09:04:17;;;;;;;2.20;2.00;;;;;;;13.38;39.12;64357.19;5052361;28;20213;-56
2023/04/28 09:06:42;;;;;;;3.70;2.60;;;;;;;13.66;37.89;64386.81;5052438;28;20193;-56
2023/04/28 09:09:20;;;;;;;3.97;2.33;;;;;;;13.76;38.04;64397.78;5052490;28;20278;-56
2023/04/28 09:11:58;;;;;;;5.72;2.42;;;;;;;13.83;38.90;64405.47;5052242;28;20189;-56
2023/04/28 09:14:24;;;;;;;3.92;2.25;;;;;;;13.94;38.00;64418.09;5052167;28;20205;-57
2023/04/28 09:16:50;;;;;;;3.55;2.10;;;;;;;13.58;37.28;64378.59;5051910;28;20632;-57
2023/04/28 09:19:16;;;;;;;3.35;2.10;;;;;;;14.06;38.77;64433.81;5052000;28;20220;-57
2023/04/28 09:21:53;;;;;;;2.63;1.93;;;;;;;14.17;37.20;64442.81;5051942;28;20198;-55
2023/04/28 09:24:35;;;;;;;5.30;2.17;;;;;;;14.86;37.82;64518.66;5052003;28;20208;-55
2023/04/28 09:27:06;;;;;;;2.28;1.50;;;;;;;15.24;36.75;64559.34;5052260;28;20278;-55
2023/04/28 09:29:32;;;;;;;4.18;2.40;;;;;;;15.47;35.63;64585.22;5052196;28;20212;-57
2023/04/28 09:32:18;;;;;;;3.65;2.00;;;;;;;15.41;34.71;64578.56;5034026;28;20190;-56
2023/04/28 09:34:52;;;;;;;5.13;2.30;;;;;;;14.58;35.58;64490.44;5051950;28;20300;-56
2023/04/28 09:37:22;;;;;;;3.97;2.80;;;;;;;15.23;36.90;64558.78;5052223;28;20192;-57
2023/04/28 09:39:50;;;;;;;4.20;2.38;;;;;;;15.51;35.74;64591.59;5034082;28;20262;-56
2023/04/28 09:42:32;;;;;;;9.02;2.25;;;;;;;15.51;34.52;64589.06;5052024;28;20255;-57
2023/04/28 09:44:58;;;;;;;3.35;2.08;;;;;;;15.79;34.39;64619.84;5051733;28;20667;-56
2023/04/28 09:47:24;;;;;;;4.43;3.42;;;;;;;16.05;34.13;64648.47;5051924;28;20186;-57
2023/04/28 09:49:57;;;;;;;4.30;2.08;;;;;;;16.21;34.21;64663.53;5051841;28;20209;-56
2023/04/28 09:52:23;;;;;;;1.98;1.52;;;;;;;16.28;33.86;64673.22;5051976;28;20197;-58
2023/04/28 09:54:50;;;;;;;5.13;2.17;;;;;;;15.75;33.12;64616.00;5033638;28;20290;-56
2023/04/28 09:57:20;;;;;;;3.40;2.17;;;;;;;16.22;34.33;64666.63;5051900;28;20189;-57
2023/04/28 09:59:50;;;;;;;2.95;1.95;;;;;;;16.84;34.53;64734.34;5051346;28;20217;-57
2023/04/28 10:02:17;;;;;;;2.67;2.33;;;;;;;15.93;34.91;64635.25;5051220;28;20217;-56
2023/04/28 10:04:49;;;;;;;6.65;1.95;;;;;;;16.83;34.60;64733.25;5051245;28;20216;-58
2023/04/28 10:07:16;;;;;;;6.28;2.22;;;;;;;17.39;32.21;64794.94;5051446;28;20197;-58
2023/04/28 10:09:47;;;;;;;5.97;2.47;;;;;;;16.91;32.12;64744.63;5051504;28;20683;-59
2023/04/28 10:12:16;;;;;;;4.40;1.75;;;;;;;17.35;33.74;64790.53;5033624;28;20279;-58
2023/04/28 10:14:43;;;;;;;3.63;1.80;;;;;;;17.04;30.02;64756.94;5051356;28;20208;-57
2023/04/28 10:17:10;;;;;;;4.35;2.13;;;;;;;17.08;31.27;64763.34;5051432;28;20762;-59
2023/04/28 10:19:36;;;;;;;3.17;2.00;;;;;;;16.84;30.52;64734.91;5051429;28;20201;-58
2023/04/28 10:22:26;;;;;;;4.03;2.20;;;;;;;17.20;29.68;64774.00;5051391;28;20213;-56
2023/04/28 10:25:10;;;;;;;2.42;2.00;;;;;;;17.57;29.30;64814.81;5051228;28;20202;-56
2023/04/28 10:27:38;;;;;;;2.15;1.70;;;;;;;17.75;29.27;64834.66;5051271;28;20199;-58
2023/04/28 10:30:14;;;;;;;2.90;1.60;;;;;;;17.39;29.58;64792.94;5050514;28;20208;-60
2023/04/28 10:32:40;;;;;;;6.13;2.08;;;;;;;17.16;29.51;64770.16;5051544;28;20201;-61
2023/04/28 10:35:24;;;;;;;6.10;1.77;;;;;;;16.44;31.62;64688.31;5051193;28;20177;-60
2023/04/28 10:38:09;;;;;;;5.57;2.15;;;;;;;16.98;30.22;64752.88;5033274;28;20193;-60
2023/04/28 10:40:37;;;;;;;3.90;1.60;;;;;;;17.08;30.30;64760.78;5051038;28;20284;-61
2023/04/28 10:43:04;;;;;;;3.65;2.00;;;;;;;17.45;31.25;64802.09;5051047;28;20217;-60
2023/04/28 10:45:48;;;;;;;3.97;1.63;;;;;;;17.44;29.89;64801.00;5050984;28;20197;-58
2023/04/28 10:48:15;;;;;;;3.03;2.38;;;;;;;17.53;29.79;64810.41;5061746;22;20216;-60
2023/04/28 10:51:21;;;;;;;3.80;1.90;;;;;;;17.08;30.26;64758.78;5070786;28;20204;-60
2023/04/28 10:53:51;;;;;;;4.00;1.60;;;;;;;17.93;29.94;64853.94;5060957;28;20267;-56
2023/04/28 10:56:25;;;;;;;6.38;2.00;;;;;;;17.27;29.46;64782.25;5050608;28;20251;-57
2023/04/28 10:58:52;;;;;;;5.18;2.97;;;;;;;17.52;30.32;64809.28;5051030;28;20247;-57
2023/04/28 11:01:17;;;;;;;3.97;1.55;;;;;;;17.24;29.72;64778.41;5050640;28;20213;-57
2023/04/28 11:03:46;;;;;;;4.70;1.60;;;;;;;17.59;29.85;64817.00;5050581;28;20201;-60
2023/04/28 11:06:25;;;;;;;4.10;1.67;;;;;;;17.81;29.05;64841.25;5050580;28;20209;-60
2023/04/28 11:08:56;;;;;;;3.00;1.60;;;;;;;18.36;29.04;64901.88;5050615;28;20213;-60
2023/04/28 11:11:33;;;;;;;2.50;1.67;;;;;;;18.35;27.93;64897.69;5050528;28;20231;-61
2023/04/28 11:14:17;;;;;;;5.53;1.65;;;;;;;18.86;26.95;64956.53;5050620;28;20209;-60
2023/04/28 11:16:49;;;;;;;3.28;1.77;;;;;;;19.40;28.53;65015.59;5050599;28;20198;-61
2023/04/28 11:19:18;;;;;;;2.47;1.65;;;;;;;18.94;27.34;64959.69;5050831;28;20298;-61
2023/04/28 11:21:44;;;;;;;2.58;1.55;;;;;;;17.82;27.84;64839.81;5032451;28;20221;-59
2023/04/28 11:24:10;;;;;;;4.45;2.20;;;;;;;17.83;28.81;64843.47;5050497;28;20223;-58
2023/04/28 11:26:37;;;;;;;2.05;1.27;;;;;;;18.98;27.27;64969.22;5032730;28;20186;-62
2023/04/28 11:29:03;;;;;;;3.20;1.75;;;;;;;19.22;26.25;64996.25;5050396;28;20243;-59
2023/04/28 11:31:29;;;;;;;7.88;1.80;;;;;;;19.46;26.50;65022.22;5050367;28;20194;-59
2023/04/28 11:34:06;;;;;;;2.33;1.55;;;;;;;18.39;27.11;64905.22;5050529;28;20308;-60
2023/04/28 11:36:35;;;;;;;2.00;1.52;;;;;;;18.78;28.48;64947.16;5050354;28;20186;-62
2023/04/28 11:39:06;;;;;;;2.67;1.58;;;;;;;19.34;27.02;65011.53;5050173;28;20214;-60